Newfane, VT (05345)

10:40 AM EST on January 18, 2017 (GMT -0500)
Center of the Universe | | Change Station

Elev 590 ft 42.95 °N, 72.66 °W | Updated 5 seconds ago

Overcast
Overcast
34.0 °F
Feels Like 34 °F
N
0.0
Wind Variable Wind from SSE
Gusts 0.0 mph

Today
High -- | Low -- °F
--% Chance of Precip.
Yesterday
High -- | Low -- °F
Precip. -- in
Pressure 30.07 in
Visibility 10.0 miles
Clouds Few 200 ft
Scattered Clouds 2800 ft
Overcast 3500 ft
Windchill 34 °F
Dew Point 33 °F
Humidity 97%
Rainfall 0.00 in
Snow Depth Not available.
7:17 AM 4:45 PM
Waning Gibbous, 62% visible
METAR KEEN 181456Z AUTO 04004KT 10SM FEW002 SCT028 OVC035 01/M01 A3000 RMK AO2 SLP182 60000 T00061011 50006 FZRANO
Pressure 30.07 in
Visibility 10.0 miles
Clouds Few 200 ft
Scattered Clouds 2800 ft
Overcast 3500 ft
Windchill 34 °F
Dew Point 33 °F
Humidity 97%
Rainfall 0.00 in
Snow Depth Not available.
7:17 AM 4:45 PM
Waning Gibbous, 62% visible
METAR KEEN 181456Z AUTO 04004KT 10SM FEW002 SCT028 OVC035 01/M01 A3000 RMK AO2 SLP182 60000 T00061011 50006 FZRANO

Get Your Daily Forecast Email!

Thanks for signing up!

Be on the lookout for a verification email in your inbox.

You'll start receiving the daily forecast at 8 AM.

×

10-Day Weather Forecast

Almanac

Astronomy

Jan. 18, 2017 Rise Set
Actual Time
Civil Twilight
Nautical Twilight
Astronomical Twilight
Moon
Length of Visible Light
Length of Day
Tomorrow will be .
, % of the Moon is Illuminated

Today's Extremes

State Highs State Lows

Community

WunderPhotos

Upload Photos

1,962,540 photos uploaded!

WunderBlog® & News

Nearby

Air Quality

  Air Quality AQ Index Pollutant
Not available.

Snow Depth

Station Depth Elevation

Earthquake Activity

City Distance Mag. Time & Date
Minimum magnitude displayed is 2.5.

Coastal Water Temperatures

Place Temperature

Stations

Nearby Weather Stations

Station Location Temp. Windchill Dew Point Humidity Wind Precip. Elev Updated Type
                   

Watches & Warnings

There are currently no watches in effect.